Time;durP1;ratioP1;P1;durP2;ratioP2;P2;SDS_P1;SDS_P2;PMS_P1;PMS_P2;Temp;Humidity;BMP_temperature;BMP_pressure;BME280_temperature;BME280_humidity;BME280_pressure;Samples;Min_cycle;Max_cycle;Signal;HPM_P1;HPM_P2
2022/11/24 00:00:47;;;;;;;89.18;53.85;;;;;;;0.42;100.00;98851.53;5051889;28;20056;-86
2022/11/24 00:03:12;;;;;;;103.43;63.63;;;;;;;0.45;100.00;98859.16;5073828;28;20376;-87
2022/11/24 00:05:37;;;;;;;100.90;59.55;;;;;;;0.42;100.00;98854.09;5074585;28;20462;-86
2022/11/24 00:08:03;;;;;;;91.05;53.85;;;;;;;0.49;100.00;98877.00;5074450;28;20754;-87
2022/11/24 00:10:28;;;;;;;90.10;54.60;;;;;;;0.47;100.00;98865.97;5074688;28;20483;-86
2022/11/24 00:12:54;;;;;;;101.10;59.83;;;;;;;0.48;100.00;98854.84;5074405;28;20025;-86
2022/11/24 00:15:20;;;;;;;100.18;60.05;;;;;;;0.52;100.00;98868.44;5073277;28;20372;-86
2022/11/24 00:17:45;;;;;;;100.47;59.17;;;;;;;0.53;100.00;98872.69;5074187;28;20020;-86
2022/11/24 00:20:10;;;;;;;95.00;60.97;;;;;;;0.53;100.00;98875.25;5074137;28;20028;-86
2022/11/24 00:22:35;;;;;;;88.65;54.65;;;;;;;0.53;100.00;98876.97;5073202;28;20013;-90
2022/11/24 00:25:01;;;;;;;79.88;49.83;;;;;;;0.53;100.00;98882.94;5074465;28;20035;-87
2022/11/24 00:27:26;;;;;;;89.03;52.67;;;;;;;0.52;100.00;98872.72;5074420;28;20095;-87
2022/11/24 00:29:51;;;;;;;100.05;62.92;;;;;;;0.53;100.00;98874.41;5074118;28;20097;-87
2022/11/24 00:32:17;;;;;;;94.30;56.70;;;;;;;0.53;100.00;98872.69;5072656;28;20024;-87
2022/11/24 00:34:42;;;;;;;81.25;50.67;;;;;;;0.56;100.00;98870.06;5073550;28;20138;-86
2022/11/24 00:37:07;;;;;;;81.65;48.15;;;;;;;0.54;100.00;98876.91;5036172;28;20017;-86
2022/11/24 00:39:33;;;;;;;81.95;49.90;;;;;;;0.57;100.00;98876.03;5054021;28;20029;-86
2022/11/24 00:41:58;;;;;;;79.93;48.20;;;;;;;0.56;100.00;98876.91;5035974;28;20370;-86
2022/11/24 00:44:23;;;;;;;80.25;49.03;;;;;;;0.61;100.00;98877.66;5054023;28;20032;-86
2022/11/24 00:46:49;;;;;;;77.47;46.88;;;;;;;0.59;100.00;98882.84;5035747;28;20013;-86
2022/11/24 00:49:14;;;;;;;77.55;48.83;;;;;;;0.52;100.00;98871.00;5053782;28;20368;-86
2022/11/24 00:51:39;;;;;;;85.63;49.88;;;;;;;0.58;100.00;98883.69;5054043;28;20344;-86
2022/11/24 00:54:05;;;;;;;75.18;47.47;;;;;;;0.64;100.00;98893.00;5053548;28;20400;-86
2022/11/24 00:56:30;;;;;;;98.10;61.28;;;;;;;0.63;100.00;98887.03;5035436;28;20024;-86
2022/11/24 00:58:56;;;;;;;85.72;54.63;;;;;;;0.65;100.00;98886.97;5035515;28;20103;-86
2022/11/24 01:01:24;;;;;;;83.80;54.47;;;;;;;0.65;100.00;98887.81;5053597;28;20025;-86
2022/11/24 01:03:50;;;;;;;81.30;48.65;;;;;;;0.62;100.00;98884.47;5053203;28;20029;-86
2022/11/24 01:06:24;;;;;;;73.72;46.53;;;;;;;0.63;100.00;98884.47;5035832;28;20020;-86
2022/11/24 01:08:50;;;;;;;76.35;45.25;;;;;;;0.58;100.00;98870.03;5035627;28;20052;-86
2022/11/24 01:11:18;;;;;;;72.68;45.38;;;;;;;0.64;100.00;98881.03;5053553;28;20100;-86
2022/11/24 01:13:45;;;;;;;73.32;47.20;;;;;;;0.66;100.00;98889.50;5035604;28;20365;-86
2022/11/24 01:16:20;;;;;;;78.20;49.38;;;;;;;0.64;100.00;98891.28;5035065;28;20020;-86
2022/11/24 01:18:46;;;;;;;83.13;53.30;;;;;;;0.67;100.00;98888.63;5053257;28;20027;-86
2022/11/24 01:21:12;;;;;;;83.70;50.47;;;;;;;0.62;100.00;98875.06;5052859;28;20033;-86
2022/11/24 01:23:38;;;;;;;85.80;49.95;;;;;;;0.68;100.00;98887.78;5053239;28;20456;-86
2022/11/24 01:26:08;;;;;;;88.07;52.50;;;;;;;0.64;100.00;98873.34;5035051;28;20031;-86
2022/11/24 01:28:34;;;;;;;88.32;55.58;;;;;;;0.54;100.00;98853.84;5053177;28;20032;-86
2022/11/24 01:31:02;;;;;;;83.47;51.58;;;;;;;0.60;100.00;98876.81;5034968;28;20017;-86
2022/11/24 01:33:28;;;;;;;95.22;59.05;;;;;;;0.61;100.00;98881.06;5053120;28;20538;-86
2022/11/24 01:35:53;;;;;;;91.20;56.47;;;;;;;0.67;100.00;98892.91;5051580;28;20056;-86
2022/11/24 01:38:19;;;;;;;83.85;49.78;;;;;;;0.65;100.00;98895.50;5073327;28;20392;-86
2022/11/24 01:40:45;;;;;;;78.63;48.05;;;;;;;0.68;100.00;98900.59;5072864;28;20024;-86
2022/11/24 01:43:20;;;;;;;75.03;47.20;;;;;;;0.66;100.00;98902.31;5072831;28;20020;-86
2022/11/24 01:45:46;;;;;;;74.10;47.15;;;;;;;0.61;100.00;98901.56;5071634;28;20025;-86
2022/11/24 01:48:23;;;;;;;78.15;48.13;;;;;;;0.56;100.00;98892.28;5069666;28;20379;-86
2022/11/24 01:50:54;;;;;;;75.63;47.50;;;;;;;0.61;100.00;98900.72;5053410;28;20123;-86
2022/11/24 01:53:21;;;;;;;77.85;46.55;;;;;;;0.56;100.00;98887.16;5053425;28;20039;-86
2022/11/24 01:55:47;;;;;;;77.00;46.35;;;;;;;0.58;100.00;98893.94;5070128;28;20032;-86
2022/11/24 01:58:24;;;;;;;77.82;47.05;;;;;;;0.62;100.00;98895.56;5070050;28;20078;-85
2022/11/24 02:00:49;;;;;;;77.85;46.97;;;;;;;0.60;100.00;98893.91;5053169;28;20048;-86
2022/11/24 02:03:19;;;;;;;76.22;46.80;;;;;;;0.56;100.00;98889.72;5069786;28;20067;-85
2022/11/24 02:05:54;;;;;;;70.55;42.85;;;;;;;0.56;100.00;98890.56;5053301;28;20371;-86
2022/11/24 02:08:27;;;;;;;70.35;43.33;;;;;;;0.62;100.00;98903.25;5052335;28;20042;-86
2022/11/24 02:10:53;;;;;;;79.22;46.47;;;;;;;0.59;100.00;98892.22;5052786;28;20501;-86
2022/11/24 02:13:20;;;;;;;79.85;45.92;;;;;;;0.61;100.00;98893.88;5052993;28;20115;-86
2022/11/24 02:15:46;;;;;;;79.57;48.05;;;;;;;0.60;100.00;98887.06;5053010;28;20048;-86
2022/11/24 02:18:11;;;;;;;81.78;47.47;;;;;;;0.62;100.00;98882.75;5052973;28;20060;-86
2022/11/24 02:20:37;;;;;;;74.20;45.90;;;;;;;0.62;100.00;98881.91;5070907;28;20033;-86
2022/11/24 02:23:11;;;;;;;76.25;45.17;;;;;;;0.64;100.00;98888.72;5072005;28;20090;-86
2022/11/24 02:26:06;;;;;;;73.63;44.95;;;;;;;0.64;100.00;98890.44;5071002;28;20029;-85
2022/11/24 02:28:32;;;;;;;73.05;44.65;;;;;;;0.62;100.00;98885.31;5070990;28;20032;-85
2022/11/24 02:30:59;;;;;;;76.78;46.60;;;;;;;0.65;100.00;98885.25;5070444;28;20028;-85
2022/11/24 02:33:25;;;;;;;83.15;52.25;;;;;;;0.63;100.00;98881.91;5072032;28;20028;-86
2022/11/24 02:35:51;;;;;;;78.10;45.20;;;;;;;0.64;100.00;98881.03;5070667;28;20460;-86
2022/11/24 02:38:17;;;;;;;72.18;44.05;;;;;;;0.59;100.00;98874.28;5070595;28;20025;-86
2022/11/24 02:40:46;;;;;;;72.82;42.70;;;;;;;0.58;100.00;98868.31;5070644;28;20079;-86
2022/11/24 02:43:19;;;;;;;77.03;46.70;;;;;;;0.65;100.00;98882.69;5070384;28;20021;-86
2022/11/24 02:45:45;;;;;;;74.60;43.80;;;;;;;0.52;100.00;98859.91;5070531;28;20146;-86
2022/11/24 02:48:13;;;;;;;68.20;41.72;;;;;;;0.63;100.00;98875.91;5070282;28;20040;-87
2022/11/24 02:50:38;;;;;;;71.03;43.78;;;;;;;0.59;100.00;98875.16;5070672;28;20024;-87
2022/11/24 02:53:04;;;;;;;70.72;42.70;;;;;;;0.66;100.00;98886.94;5070381;28;20039;-86
2022/11/24 02:55:29;;;;;;;62.97;41.63;;;;;;;0.67;100.00;98893.75;5071928;28;20375;-86
2022/11/24 02:57:54;;;;;;;67.40;42.40;;;;;;;0.64;100.00;98898.97;5070464;28;20107;-86
2022/11/24 03:00:20;;;;;;;67.53;42.53;;;;;;;0.60;100.00;98888.78;5070404;28;20115;-86
2022/11/24 03:02:46;;;;;;;71.93;41.70;;;;;;;0.64;100.00;98904.09;5070462;28;20021;-86
2022/11/24 03:05:12;;;;;;;66.50;41.58;;;;;;;0.67;100.00;98909.13;5070349;28;20032;-86
2022/11/24 03:07:37;;;;;;;70.72;43.15;;;;;;;0.65;100.00;98903.19;5070543;28;20028;-86
2022/11/24 03:10:04;;;;;;;69.07;43.53;;;;;;;0.66;100.00;98911.72;5071384;28;20403;-86
2022/11/24 03:12:29;;;;;;;64.97;43.15;;;;;;;0.63;100.00;98904.09;5070387;28;20331;-86
2022/11/24 03:14:54;;;;;;;67.57;42.90;;;;;;;0.62;100.00;98910.94;5070349;28;20048;-86
2022/11/24 03:17:20;;;;;;;65.30;40.58;;;;;;;0.57;100.00;98907.63;5071240;28;20025;-86
2022/11/24 03:19:45;;;;;;;69.70;42.20;;;;;;;0.61;100.00;98910.97;5073348;28;20091;-86
2022/11/24 03:22:12;;;;;;;61.63;41.25;;;;;;;0.58;100.00;98903.34;5074115;28;20020;-86
2022/11/24 03:24:37;;;;;;;70.45;41.63;;;;;;;0.48;100.00;98892.41;5074241;28;20036;-86
2022/11/24 03:27:02;;;;;;;69.40;41.13;;;;;;;0.54;100.00;98912.78;5072478;28;20415;-86
2022/11/24 03:29:28;;;;;;;62.45;40.20;;;;;;;0.52;100.00;98917.13;5072962;28;20491;-86
2022/11/24 03:31:53;;;;;;;67.70;41.90;;;;;;;0.43;100.00;98902.75;5072737;28;20574;-86
2022/11/24 03:34:18;;;;;;;64.25;40.67;;;;;;;0.49;100.00;98910.31;5055706;28;20027;-86
2022/11/24 03:36:44;;;;;;;67.63;41.22;;;;;;;0.50;100.00;98922.25;5072704;28;20041;-85
2022/11/24 03:39:09;;;;;;;65.80;42.45;;;;;;;0.43;100.00;98907.03;5055691;28;20020;-86
2022/11/24 03:41:34;;;;;;;70.40;43.00;;;;;;;0.52;100.00;98921.41;5072751;28;20051;-86
2022/11/24 03:44:00;;;;;;;75.90;46.30;;;;;;;0.49;100.00;98924.84;5055665;28;20384;-86
2022/11/24 03:46:25;;;;;;;75.10;45.33;;;;;;;0.47;100.00;98919.75;5055601;28;20125;-86
2022/11/24 03:48:50;;;;;;;74.07;46.33;;;;;;;0.52;100.00;98926.53;5072746;28;20028;-86
2022/11/24 03:51:16;;;;;;;80.00;45.80;;;;;;;0.44;100.00;98919.81;5055498;28;20021;-86
2022/11/24 03:53:41;;;;;;;72.90;44.35;;;;;;;0.42;100.00;98919.00;5055658;28;20035;-86
2022/11/24 03:56:06;;;;;;;73.15;44.63;;;;;;;0.46;100.00;98923.19;5072324;28;20472;-86
2022/11/24 03:58:32;;;;;;;71.78;43.22;;;;;;;0.48;100.00;98925.72;5074050;28;20036;-86
2022/11/24 04:00:57;;;;;;;77.45;45.28;;;;;;;0.49;100.00;98922.28;5073260;28;20063;-86
2022/11/24 04:03:23;;;;;;;76.95;47.13;;;;;;;0.47;100.00;98913.78;5074877;28;20016;-86
2022/11/24 04:05:48;;;;;;;74.20;44.38;;;;;;;0.37;100.00;98896.88;5074843;28;20082;-86
2022/11/24 04:08:14;;;;;;;79.55;47.63;;;;;;;0.44;100.00;98914.69;5073182;28;20024;-86
2022/11/24 04:10:40;;;;;;;89.93;52.53;;;;;;;0.47;100.00;98919.75;5074608;28;20028;-86
2022/11/24 04:13:17;;;;;;;83.00;49.20;;;;;;;0.48;100.00;98923.16;5073022;28;20024;-86
2022/11/24 04:15:43;;;;;;;73.75;45.97;;;;;;;0.49;100.00;98920.56;5073198;28;20025;-86
2022/11/24 04:18:10;;;;;;;76.32;45.67;;;;;;;0.49;100.00;98919.72;5074480;28;20481;-86
2022/11/24 04:20:35;;;;;;;72.38;43.72;;;;;;;0.49;100.00;98912.03;5074522;28;20020;-86
2022/11/24 04:23:01;;;;;;;68.75;40.95;;;;;;;0.44;100.00;98919.81;5074134;28;20027;-86
2022/11/24 04:25:27;;;;;;;64.43;42.33;;;;;;;0.47;100.00;98924.88;5073121;28;20436;-86
2022/11/24 04:27:54;;;;;;;68.13;42.30;;;;;;;0.38;100.00;98913.94;5071619;28;20029;-86
2022/11/24 04:30:21;;;;;;;66.68;41.83;;;;;;;0.47;100.00;98919.75;5053894;28;20041;-86
2022/11/24 04:32:47;;;;;;;61.50;40.05;;;;;;;0.44;100.00;98929.22;5054752;28;20032;-86
2022/11/24 04:35:12;;;;;;;67.03;43.25;;;;;;;0.46;100.00;98932.56;5054391;28;20040;-85
2022/11/24 04:37:38;;;;;;;67.95;42.85;;;;;;;0.44;100.00;98927.50;5071793;28;20534;-84
2022/11/24 04:40:05;;;;;;;76.38;45.65;;;;;;;0.35;100.00;98916.56;5071387;28;20037;-84
2022/11/24 04:42:30;;;;;;;72.57;45.33;;;;;;;0.22;100.00;98901.41;5054615;28;20123;-84
2022/11/24 04:44:56;;;;;;;78.53;48.80;;;;;;;0.34;100.00;98923.41;5054723;28;20645;-85
2022/11/24 04:47:23;;;;;;;80.22;47.58;;;;;;;0.44;100.00;98942.03;5054511;28;20107;-84
2022/11/24 04:49:49;;;;;;;72.20;45.10;;;;;;;0.45;100.00;98951.38;5071864;28;20090;-84
2022/11/24 04:52:16;;;;;;;73.75;44.60;;;;;;;0.42;100.00;98947.19;5054499;28;20025;-85
2022/11/24 04:54:41;;;;;;;76.43;45.10;;;;;;;0.41;100.00;98948.03;5071477;28;20036;-85
2022/11/24 04:57:17;;;;;;;74.68;45.10;;;;;;;0.45;100.00;98956.50;5054214;28;20024;-85
2022/11/24 04:59:43;;;;;;;72.90;45.20;;;;;;;0.47;100.00;98957.34;5069167;28;20032;-85
2022/11/24 05:02:08;;;;;;;75.30;46.17;;;;;;;0.40;100.00;98948.06;5073534;28;20029;-85
2022/11/24 05:04:33;;;;;;;71.95;44.33;;;;;;;0.45;100.00;98969.31;5072419;28;20047;-85
2022/11/24 05:06:59;;;;;;;71.15;43.72;;;;;;;0.50;100.00;98980.34;5072241;28;20119;-85
2022/11/24 05:09:24;;;;;;;67.68;42.22;;;;;;;0.46;100.00;98971.88;5073306;28;20060;-85
2022/11/24 05:11:50;;;;;;;64.88;41.65;;;;;;;0.50;100.00;98982.91;5073375;28;20024;-85
2022/11/24 05:14:15;;;;;;;75.03;43.88;;;;;;;0.48;100.00;98977.81;5071961;28;20035;-85
2022/11/24 05:16:40;;;;;;;68.57;43.08;;;;;;;0.42;100.00;98975.34;5073446;28;20039;-85
2022/11/24 05:19:06;;;;;;;67.78;41.50;;;;;;;0.47;100.00;98990.66;5071823;28;20376;-85
2022/11/24 05:21:31;;;;;;;71.57;42.00;;;;;;;0.41;100.00;98985.63;5073238;28;20028;-85
2022/11/24 05:23:56;;;;;;;73.60;43.28;;;;;;;0.47;100.00;99001.75;5073108;28;20337;-85
2022/11/24 05:26:22;;;;;;;70.88;41.65;;;;;;;0.48;100.00;99006.00;5072698;28;20027;-85
2022/11/24 05:28:47;;;;;;;75.85;45.28;;;;;;;0.42;100.00;98997.53;5071901;28;20525;-85
2022/11/24 05:31:12;;;;;;;73.55;45.60;;;;;;;0.47;100.00;99003.47;5072679;28;20032;-85
2022/11/24 05:33:38;;;;;;;87.05;49.45;;;;;;;0.49;100.00;99007.66;5073038;28;20431;-84
2022/11/24 05:36:05;;;;;;;77.60;47.60;;;;;;;0.47;100.00;99001.75;5061626;28;20105;-84
2022/11/24 05:38:32;;;;;;;91.80;56.58;;;;;;;0.46;100.00;98992.38;5052944;28;20029;-85
2022/11/24 05:41:01;;;;;;;84.57;52.40;;;;;;;0.38;100.00;98981.41;5052714;28;20375;-85
2022/11/24 05:43:27;;;;;;;97.13;55.38;;;;;;;0.39;100.00;98983.09;5033977;28;20082;-85
2022/11/24 05:45:52;;;;;;;112.15;67.95;;;;;;;0.46;100.00;98994.06;5035103;28;20021;-85
2022/11/24 05:48:17;;;;;;;101.78;59.50;;;;;;;0.43;100.00;99000.09;5034752;28;20499;-85
2022/11/24 05:50:43;;;;;;;101.47;61.67;;;;;;;0.38;100.00;98994.22;5034873;28;20472;-85
2022/11/24 05:53:12;;;;;;;93.95;55.08;;;;;;;0.43;100.00;98999.25;5034449;28;20112;-85
2022/11/24 05:55:39;;;;;;;91.38;52.55;;;;;;;0.43;100.00;98996.69;5052470;28;20453;-85
2022/11/24 05:58:07;;;;;;;94.07;54.05;;;;;;;0.43;100.00;98996.69;5034795;28;20028;-85
2022/11/24 06:00:33;;;;;;;82.63;50.58;;;;;;;0.48;100.00;99005.16;5052576;28;20032;-85
2022/11/24 06:02:59;;;;;;;83.97;49.88;;;;;;;0.51;100.00;99010.22;5034672;28;20372;-85
2022/11/24 06:05:26;;;;;;;84.15;49.30;;;;;;;0.46;100.00;98994.06;5034368;28;20028;-85
2022/11/24 06:07:52;;;;;;;78.70;47.30;;;;;;;0.57;100.00;99022.94;5034604;28;20017;-85
2022/11/24 06:10:19;;;;;;;74.57;45.80;;;;;;;0.50;100.00;99016.19;5052067;28;20377;-85
2022/11/24 06:12:44;;;;;;;77.85;45.35;;;;;;;0.57;100.00;99037.47;5052582;28;20032;-85
2022/11/24 06:15:10;;;;;;;79.22;45.38;;;;;;;0.53;100.00;99034.09;5052163;28;20025;-85
2022/11/24 06:17:37;;;;;;;74.88;43.63;;;;;;;0.46;100.00;99027.38;5052589;28;20028;-85
2022/11/24 06:20:04;;;;;;;81.22;46.38;;;;;;;0.56;100.00;99048.59;5052162;28;20025;-84
2022/11/24 06:22:29;;;;;;;75.63;44.17;;;;;;;0.53;100.00;99049.47;5033903;28;20028;-85
2022/11/24 06:24:55;;;;;;;71.10;43.97;;;;;;;0.41;100.00;99016.34;5034409;28;20120;-85
2022/11/24 06:27:20;;;;;;;81.60;46.22;;;;;;;0.62;100.00;99053.59;5034146;28;20043;-85
2022/11/24 06:29:46;;;;;;;78.40;45.53;;;;;;;0.60;100.00;99045.94;5034287;28;20051;-85
2022/11/24 06:32:11;;;;;;;79.07;47.47;;;;;;;0.63;100.00;99045.91;5009456;28;20426;-85
2022/11/24 06:34:37;;;;;;;81.28;47.95;;;;;;;0.51;100.00;99038.41;4993420;28;20041;-85
2022/11/24 06:37:02;;;;;;;78.75;47.17;;;;;;;0.64;100.00;99046.75;5048443;28;20071;-85
2022/11/24 06:39:27;;;;;;;84.20;48.63;;;;;;;0.61;100.00;99057.03;5049261;28;20035;-85
2022/11/24 06:41:53;;;;;;;77.30;46.85;;;;;;;0.73;100.00;99072.22;5032727;28;20530;-85
2022/11/24 06:44:19;;;;;;;85.03;46.92;;;;;;;0.69;100.00;99057.78;5049350;28;20036;-84
2022/11/24 06:46:44;;;;;;;77.00;43.28;;;;;;;0.73;100.00;99072.22;5049350;28;20139;-85
2022/11/24 06:49:09;;;;;;;79.35;42.45;;;;;;;0.83;100.00;99091.69;5049244;28;20439;-85
2022/11/24 06:51:35;;;;;;;76.25;43.22;;;;;;;0.84;100.00;99084.84;5032666;28;20071;-85
2022/11/24 06:54:01;;;;;;;84.30;45.38;;;;;;;0.81;100.00;99083.19;5048940;28;20392;-85
2022/11/24 06:56:26;;;;;;;99.35;51.75;;;;;;;0.87;100.00;99087.38;5049103;28;20043;-85
2022/11/24 06:58:52;;;;;;;109.53;58.08;;;;;;;0.94;100.00;99104.34;5049364;28;20128;-85
2022/11/24 07:01:23;;;;;;;101.10;54.97;;;;;;;0.92;100.00;99100.97;5032246;28;20021;-85
2022/11/24 07:03:49;;;;;;;92.85;50.90;;;;;;;0.98;100.00;99111.97;5077325;28;20083;-85
2022/11/24 07:06:15;;;;;;;99.45;54.05;;;;;;;1.02;100.00;99114.50;5070188;28;20468;-85
2022/11/24 07:08:40;;;;;;;93.53;50.28;;;;;;;0.99;100.00;99115.38;5071602;28;20021;-85
2022/11/24 07:11:08;;;;;;;90.43;48.88;;;;;;;1.06;100.00;99121.25;5070514;28;20032;-85
2022/11/24 07:13:34;;;;;;;88.32;48.30;;;;;;;1.10;100.00;99120.34;5070355;28;20368;-85
2022/11/24 07:16:00;;;;;;;91.82;51.53;;;;;;;1.13;100.00;99118.56;5071733;28;20028;-85
2022/11/24 07:18:25;;;;;;;95.13;52.38;;;;;;;1.15;100.00;99124.50;5071513;28;20025;-85
2022/11/24 07:20:50;;;;;;;89.35;50.55;;;;;;;1.10;100.00;99107.53;5071554;28;20035;-85
2022/11/24 07:23:15;;;;;;;86.05;48.92;;;;;;;1.17;100.00;99130.44;5061051;28;20020;-85
2022/11/24 07:25:41;;;;;;;81.97;45.85;;;;;;;1.14;100.00;99112.56;5051392;28;20060;-85
2022/11/24 07:28:06;;;;;;;75.50;43.22;;;;;;;1.16;100.00;99122.78;5051538;28;20070;-85
2022/11/24 07:30:31;;;;;;;77.60;43.72;;;;;;;1.15;100.00;99118.53;5051122;28;20029;-85
2022/11/24 07:33:01;;;;;;;79.60;44.10;;;;;;;1.29;100.00;99133.69;5051306;28;20051;-85
2022/11/24 07:35:27;;;;;;;75.25;43.67;;;;;;;1.32;100.00;99126.78;5049496;28;20091;-85
2022/11/24 07:37:54;;;;;;;79.85;45.67;;;;;;;1.33;100.00;99125.06;5050158;28;20028;-85
2022/11/24 07:40:19;;;;;;;84.70;47.45;;;;;;;1.36;100.00;99122.47;5051086;28;20021;-85
2022/11/24 07:42:45;;;;;;;94.82;54.58;;;;;;;1.34;100.00;99121.63;5049974;28;20111;-85
2022/11/24 07:45:10;;;;;;;93.72;48.28;;;;;;;1.37;100.00;99129.28;5050210;28;20349;-85
2022/11/24 07:47:39;;;;;;;89.65;51.33;;;;;;;1.27;100.00;99112.34;5051157;28;20022;-86
2022/11/24 07:50:08;;;;;;;85.05;50.92;;;;;;;1.30;100.00;99133.66;5051192;28;20024;-86
2022/11/24 07:52:34;;;;;;;78.38;42.70;;;;;;;1.31;100.00;99121.69;5051231;28;20051;-85
2022/11/24 07:54:59;;;;;;;81.03;43.17;;;;;;;1.27;100.00;99112.34;5050130;28;20025;-85
2022/11/24 07:57:24;;;;;;;82.22;44.72;;;;;;;1.37;100.00;99131.84;5049791;28;20043;-85
2022/11/24 07:59:50;;;;;;;83.18;44.90;;;;;;;1.36;100.00;99127.59;5049916;28;20108;-85
2022/11/24 08:02:15;;;;;;;86.65;52.00;;;;;;;1.25;100.00;99114.94;5050951;28;20389;-85
2022/11/24 08:04:40;;;;;;;80.72;48.42;;;;;;;1.33;100.00;99130.19;5049731;28;20033;-86
2022/11/24 08:07:06;;;;;;;77.28;43.25;;;;;;;1.31;100.00;99121.69;5054640;28;20380;-85
2022/11/24 08:09:31;;;;;;;82.30;46.10;;;;;;;1.37;100.00;99127.53;5053162;28;20028;-85
2022/11/24 08:11:56;;;;;;;82.75;42.20;;;;;;;1.29;100.00;99119.13;5054735;28;20023;-85
2022/11/24 08:14:22;;;;;;;89.78;46.95;;;;;;;1.39;100.00;99125.81;5053028;28;20031;-85
2022/11/24 08:16:47;;;;;;;73.35;41.72;;;;;;;1.45;100.00;99130.81;5054970;28;20013;-85
2022/11/24 08:19:12;;;;;;;78.00;44.47;;;;;;;1.49;100.00;99129.06;5053081;28;20452;-85
2022/11/24 08:21:38;;;;;;;87.65;44.72;;;;;;;1.52;100.00;99129.00;5054348;28;20021;-85
2022/11/24 08:24:03;;;;;;;81.60;44.35;;;;;;;1.54;100.00;99129.81;5065499;28;20032;-85
2022/11/24 08:26:29;;;;;;;83.18;44.03;;;;;;;1.50;100.00;99121.31;5073983;28;20024;-85
2022/11/24 08:28:56;;;;;;;84.38;46.35;;;;;;;1.67;100.00;99140.69;5054945;28;20078;-85
2022/11/24 08:31:24;;;;;;;84.00;45.65;;;;;;;1.70;100.00;99145.78;5054108;28;20322;-85
2022/11/24 08:33:50;;;;;;;84.10;43.75;;;;;;;1.80;100.00;99151.56;5053871;28;20024;-86
2022/11/24 08:36:17;;;;;;;87.88;48.22;;;;;;;1.88;100.00;99158.25;5052431;28;20045;-85
2022/11/24 08:38:43;;;;;;;81.72;45.90;;;;;;;1.90;100.00;99153.13;5061500;28;20028;-85
2022/11/24 08:41:11;;;;;;;82.60;43.22;;;;;;;1.95;100.00;99156.44;5054141;28;20106;-85
2022/11/24 08:43:36;;;;;;;75.20;42.20;;;;;;;1.98;100.00;99156.34;5053888;28;20021;-85
2022/11/24 08:46:07;;;;;;;77.03;41.05;;;;;;;2.07;100.00;99165.63;5056335;28;20135;-85
2022/11/24 08:48:33;;;;;;;80.20;42.78;;;;;;;2.13;100.00;99165.47;5060836;28;20021;-85
2022/11/24 08:51:06;;;;;;;81.68;43.60;;;;;;;2.06;100.00;99145.94;5063075;28;20039;-86
2022/11/24 08:53:31;;;;;;;78.43;41.80;;;;;;;2.17;100.00;99165.38;5072124;28;20021;-86
2022/11/24 08:56:00;;;;;;;83.45;44.80;;;;;;;2.24;100.00;99166.97;5074101;28;20028;-86
2022/11/24 08:58:27;;;;;;;91.00;49.65;;;;;;;2.17;100.00;99149.13;5073438;28;20017;-86
2022/11/24 09:00:52;;;;;;;91.78;51.28;;;;;;;2.38;100.00;99181.25;5071324;28;20033;-85
2022/11/24 09:03:18;;;;;;;88.88;50.00;;;;;;;2.46;100.00;99175.06;5052256;28;20159;-86
2022/11/24 09:05:43;;;;;;;101.57;52.75;;;;;;;2.49;100.00;99175.00;5054097;28;20083;-86
2022/11/24 09:08:08;;;;;;;101.13;54.25;;;;;;;2.53;100.00;99174.91;5053727;28;20024;-86
2022/11/24 09:10:34;;;;;;;100.68;54.15;;;;;;;2.59;100.00;99183.34;5054143;28;20033;-86
2022/11/24 09:12:59;;;;;;;95.00;51.45;;;;;;;2.61;100.00;99173.03;5073745;28;20452;-86
2022/11/24 09:15:25;;;;;;;97.38;52.33;;;;;;;2.63;100.00;99173.84;5071748;28;20021;-86
2022/11/24 09:17:50;;;;;;;95.55;51.85;;;;;;;2.71;100.00;99187.41;5072905;28;20112;-86
2022/11/24 09:20:16;;;;;;;92.85;51.58;;;;;;;2.67;100.00;99184.03;5072165;28;20277;-86
2022/11/24 09:22:41;;;;;;;92.32;47.35;;;;;;;2.65;100.00;99169.50;5073198;28;20020;-85
2022/11/24 09:25:08;;;;;;;89.82;49.20;;;;;;;2.74;100.00;99180.47;5073325;28;20020;-85
2022/11/24 09:27:34;;;;;;;86.95;48.90;;;;;;;2.74;100.00;99169.34;5072934;28;20031;-86
2022/11/24 09:29:59;;;;;;;101.30;50.53;;;;;;;2.80;100.00;99165.75;5073073;28;20032;-86
2022/11/24 09:32:25;;;;;;;95.80;50.15;;;;;;;2.92;100.00;99179.19;5072641;28;20020;-86
2022/11/24 09:34:50;;;;;;;90.25;48.10;;;;;;;2.97;100.00;99177.34;5070203;28;20036;-86
2022/11/24 09:37:16;;;;;;;89.95;48.42;;;;;;;2.97;100.00;99161.06;5035230;28;20029;-85
2022/11/24 09:39:42;;;;;;;94.82;49.22;;;;;;;3.10;100.00;99180.47;5052985;28;20096;-86
2022/11/24 09:42:14;;;;;;;95.00;48.03;;;;;;;3.10;100.00;99157.31;5052942;28;20017;-86
2022/11/24 09:45:00;;;;;;;86.72;46.30;;;;;;;3.17;100.00;99173.47;5034716;28;20399;-85
2022/11/24 09:47:55;;;;;;;87.20;46.97;;;;;;;3.30;100.00;99182.56;5034950;28;20111;-86
2022/11/24 09:50:47;;;;;;;92.20;48.20;;;;;;;3.35;100.00;99179.88;5052745;28;20083;-86
2022/11/24 09:53:31;;;;;;;91.63;50.95;;;;;;;3.31;100.00;99173.13;4936250;29;20047;-86
2022/11/24 09:56:09;;;;;;;88.72;47.42;;;;;;;3.35;100.00;99173.00;4932985;29;20039;-86
2022/11/24 09:58:42;;;;;;;84.93;48.35;;;;;;;3.44;100.00;99177.91;4916860;29;20036;-86
2022/11/24 10:01:17;;;;;;;94.95;50.70;;;;;;;3.36;100.00;99179.84;4932805;29;20102;-86
2022/11/24 10:03:49;;;;;;;99.50;52.97;;;;;;;3.25;100.00;99181.84;4932788;29;20032;-86
2022/11/24 10:06:25;;;;;;;95.18;50.28;;;;;;;3.11;100.00;99192.44;4932871;29;20042;-86
2022/11/24 10:09:09;;;;;;;99.97;51.85;;;;;;;2.89;100.00;99198.97;4916959;29;20102;-86
2022/11/24 10:11:38;;;;;;;102.10;56.65;;;;;;;2.68;100.00;99190.03;4932495;29;20043;-86
2022/11/24 10:14:32;;;;;;;103.07;54.38;;;;;;;2.61;100.00;99198.75;4933065;29;20068;-86
2022/11/24 10:17:19;;;;;;;106.53;55.60;;;;;;;2.53;100.00;99208.34;4894774;29;20032;-85
2022/11/24 10:19:49;;;;;;;114.82;60.25;;;;;;;2.41;100.00;99191.47;4878872;29;20059;-85
2022/11/24 10:22:39;;;;;;;111.45;58.53;;;;;;;2.44;100.00;99201.66;4878985;29;20128;-86
2022/11/24 10:25:17;;;;;;;114.82;58.40;;;;;;;2.41;100.00;99202.59;4894810;29;20080;-86
2022/11/24 10:27:45;;;;;;;109.25;58.38;;;;;;;2.40;100.00;99203.47;4909280;29;20040;-86
2022/11/24 10:30:19;;;;;;;103.07;57.92;;;;;;;2.37;100.00;99193.25;4968170;28;20037;-85
2022/11/24 10:32:48;;;;;;;103.88;58.72;;;;;;;2.41;100.00;99201.75;4993113;28;20563;-85
2022/11/24 10:35:25;;;;;;;103.15;59.22;;;;;;;2.40;100.00;99194.91;4997719;28;20039;-85
2022/11/24 10:38:06;;;;;;;127.47;65.80;;;;;;;2.44;100.00;99196.53;5012993;28;20559;-85
2022/11/24 10:40:38;;;;;;;105.22;60.08;;;;;;;2.43;100.00;99200.81;5029178;28;20079;-85
2022/11/24 10:43:09;;;;;;;107.75;58.97;;;;;;;2.45;100.00;99200.81;5012947;28;20465;-85
2022/11/24 10:45:36;;;;;;;108.97;59.85;;;;;;;2.45;100.00;99199.09;5029414;28;20029;-85
2022/11/24 10:48:04;;;;;;;110.63;65.47;;;;;;;2.53;100.00;99193.78;5029568;28;20108;-85
2022/11/24 10:50:38;;;;;;;121.70;71.00;;;;;;;2.58;100.00;99191.13;5029283;28;20053;-86
2022/11/24 10:53:19;;;;;;;117.20;64.65;;;;;;;2.58;100.00;99188.53;5034414;28;20444;-86
2022/11/24 10:55:54;;;;;;;127.45;68.28;;;;;;;2.69;100.00;99194.28;5050060;28;20519;-85
2022/11/24 10:58:22;;;;;;;130.52;71.80;;;;;;;2.61;100.00;99173.91;5050528;28;20021;-85
2022/11/24 11:00:49;;;;;;;128.90;67.10;;;;;;;2.73;100.00;99193.34;5051592;28;20108;-85
2022/11/24 11:03:17;;;;;;;110.75;60.72;;;;;;;2.72;100.00;99187.34;5052121;28;20040;-85
2022/11/24 11:05:55;;;;;;;117.80;64.47;;;;;;;2.73;100.00;99191.59;5050229;28;20021;-86
2022/11/24 11:08:31;;;;;;;121.43;68.55;;;;;;;2.68;100.00;99190.88;5050393;28;20053;-86
2022/11/24 11:11:15;;;;;;;126.63;73.30;;;;;;;2.71;100.00;99192.53;5050455;28;20035;-86
2022/11/24 11:13:50;;;;;;;117.85;67.07;;;;;;;2.69;100.00;99187.41;5051285;28;20088;-86
2022/11/24 11:16:42;;;;;;;120.15;66.65;;;;;;;2.65;100.00;99183.22;5050172;28;20021;-86
2022/11/24 11:19:26;;;;;;;126.57;69.63;;;;;;;2.64;100.00;99196.94;5050425;28;20452;-85